createdAt,value
2023-01-17T00:03:42.521Z,19.47
2023-01-17T00:13:44.071Z,21.63
2023-01-17T00:23:45.612Z,21.83
2023-01-17T00:33:47.147Z,20.60
2023-01-17T00:43:48.688Z,18.83
2023-01-17T00:53:50.200Z,20.17
2023-01-17T01:03:51.805Z,22.60
2023-01-17T01:13:53.728Z,21.17
2023-01-17T01:23:55.247Z,20.50
2023-01-17T01:33:56.775Z,22.30
2023-01-17T01:43:58.291Z,20.73
2023-01-17T01:54:07.522Z,20.33
2023-01-17T02:04:09.744Z,20.13
2023-01-17T02:14:19.179Z,20.03
2023-01-17T02:24:53.074Z,20.87
2023-01-17T02:35:02.711Z,21.13
2023-01-17T02:45:05.221Z,21.13
2023-01-17T02:55:27.504Z,22.23
2023-01-17T03:05:52.128Z,21.83
2023-01-17T03:15:53.670Z,22.57
2023-01-17T03:25:55.198Z,22.60
2023-01-17T03:35:56.706Z,20.03
2023-01-17T03:46:07.064Z,20.43
2023-01-17T03:56:09.210Z,20.27
2023-01-17T04:06:10.742Z,18.87
2023-01-17T04:16:16.049Z,18.73
2023-01-17T04:26:17.593Z,19.00
2023-01-17T04:36:19.109Z,17.20
2023-01-17T04:46:20.660Z,21.03
2023-01-17T04:56:22.232Z,21.00
2023-01-17T05:06:23.753Z,20.33
2023-01-17T05:16:25.303Z,19.83
2023-01-17T05:26:26.857Z,18.87
2023-01-17T05:36:28.469Z,18.37
2023-01-17T05:46:30.031Z,20.55
2023-01-17T05:56:31.814Z,20.80
2023-01-17T06:06:33.940Z,21.23
2023-01-17T06:16:35.484Z,21.67
2023-01-17T06:26:36.998Z,21.17
2023-01-17T06:36:38.531Z,20.63
2023-01-17T06:46:40.110Z,20.88
2023-01-17T06:56:41.699Z,20.83
2023-01-17T07:06:43.207Z,22.60
2023-01-17T07:16:44.859Z,21.03
2023-01-17T07:26:50.520Z,22.27
2023-01-17T07:36:52.063Z,21.33
2023-01-17T07:46:54.787Z,20.17
2023-01-17T07:56:56.421Z,21.97
2023-01-17T08:06:57.932Z,21.52
2023-01-17T08:17:25.576Z,21.00
2023-01-17T08:27:28.602Z,22.20
2023-01-17T08:37:30.128Z,24.15
2023-01-17T08:47:32.642Z,21.53
2023-01-17T08:57:34.143Z,21.70
2023-01-17T09:07:35.739Z,23.48
2023-01-17T09:17:37.310Z,22.23
2023-01-17T09:27:38.816Z,21.90
2023-01-17T09:37:40.323Z,21.80
2023-01-17T09:47:49.723Z,21.30
2023-01-17T09:58:05.066Z,21.43
2023-01-17T10:08:08.633Z,20.95
2023-01-17T10:18:30.352Z,20.07
2023-01-17T10:28:48.896Z,19.73
2023-01-17T10:38:56.897Z,20.13
2023-01-17T10:48:58.908Z,21.93
2023-01-17T10:59:27.408Z,20.80
2023-01-17T11:09:39.310Z,20.20
2023-01-17T11:19:41.083Z,21.53
2023-01-17T11:29:42.642Z,22.17
2023-01-17T11:39:44.618Z,17.55
2023-01-17T11:49:48.233Z,18.47
2023-01-17T11:59:50.847Z,18.90
2023-01-17T12:10:35.643Z,18.10
2023-01-17T12:20:55.698Z,16.27
2023-01-17T12:31:22.176Z,15.90
2023-01-17T12:41:34.085Z,15.93
2023-01-17T12:51:43.145Z,15.13
2023-01-17T13:01:49.999Z,15.63
2023-01-17T13:11:57.626Z,15.37
2023-01-17T13:22:02.195Z,15.97
2023-01-17T13:32:03.693Z,15.32
2023-01-17T13:42:29.278Z,13.03
2023-01-17T13:52:33.189Z,12.03
2023-01-17T14:02:38.224Z,11.80
2023-01-17T14:12:39.863Z,8.93
2023-01-17T14:22:56.695Z,10.63
2023-01-17T14:33:00.954Z,9.47
2023-01-17T14:43:07.398Z,10.00
2023-01-17T14:53:11.690Z,9.43
2023-01-17T15:03:13.625Z,8.20
2023-01-17T15:13:21.361Z,8.97
2023-01-17T15:23:30.391Z,9.20
2023-01-17T15:33:33.610Z,8.70
2023-01-17T15:43:35.190Z,8.27
2023-01-17T15:53:39.671Z,8.33
2023-01-17T16:03:52.306Z,7.53
2023-01-17T16:13:53.848Z,7.13
2023-01-17T16:23:55.685Z,5.97
2023-01-17T16:33:57.251Z,6.13
2023-01-17T16:44:01.310Z,4.40
2023-01-17T16:54:03.207Z,6.10
2023-01-17T17:04:04.903Z,5.30
2023-01-17T17:14:06.431Z,6.40
2023-01-17T17:24:08.031Z,7.57
2023-01-17T17:34:13.696Z,8.00
2023-01-17T17:44:15.357Z,9.00
2023-01-17T17:54:17.847Z,9.40
2023-01-17T18:04:19.676Z,11.80
2023-01-17T18:14:21.318Z,10.13
2023-01-17T18:24:24.504Z,8.13
2023-01-17T18:34:27.658Z,8.67
2023-01-17T18:44:29.290Z,8.57
2023-01-17T18:54:30.833Z,8.83
2023-01-17T19:04:32.349Z,8.38
2023-01-17T19:14:33.840Z,10.43
2023-01-17T19:24:35.348Z,10.10
2023-01-17T19:34:36.978Z,10.48
2023-01-17T19:44:38.563Z,12.87
2023-01-17T19:54:41.347Z,12.27
2023-01-17T20:04:42.905Z,11.73
2023-01-17T20:14:45.013Z,12.23
2023-01-17T20:24:46.979Z,11.93
2023-01-17T20:34:48.532Z,13.13
2023-01-17T20:44:50.083Z,11.17
2023-01-17T20:54:52.479Z,13.15
2023-01-17T21:04:53.976Z,14.10
2023-01-17T21:14:55.522Z,15.47
2023-01-17T21:24:57.025Z,14.93
2023-01-17T21:34:58.546Z,13.67
2023-01-17T21:45:00.094Z,14.73
2023-01-17T21:55:01.762Z,14.95
2023-01-17T22:05:03.387Z,14.43
2023-01-17T22:15:05.538Z,14.10
2023-01-17T22:25:07.324Z,16.52
2023-01-17T22:35:08.970Z,15.30
2023-01-17T22:45:11.046Z,14.83
2023-01-17T22:55:12.584Z,14.13
2023-01-17T23:05:14.189Z,14.23
2023-01-17T23:15:15.835Z,14.07
2023-01-17T23:25:17.408Z,13.15
2023-01-17T23:35:21.241Z,13.47
2023-01-17T23:45:22.840Z,13.63
2023-01-17T23:55:24.575Z,14.23
